sensor_id;sensor_type;location;lat;lon;timestamp;pressure;altitude;pressure_sealevel;temperature;humidity
40872;BME280;26591;43.264;26.940;2023-05-29T00:01:12;98667.34;;;17.57;88.99
40872;BME280;26591;43.264;26.940;2023-05-29T00:03:38;98672.31;;;17.53;89.31
40872;BME280;26591;43.264;26.940;2023-05-29T00:06:03;98666.19;;;17.46;89.76
40872;BME280;26591;43.264;26.940;2023-05-29T00:08:29;98659.31;;;17.57;89.50
40872;BME280;26591;43.264;26.940;2023-05-29T00:10:55;98667.25;;;17.45;90.10
40872;BME280;26591;43.264;26.940;2023-05-29T00:13:20;98673.13;;;17.53;89.79
40872;BME280;26591;43.264;26.940;2023-05-29T00:15:46;98676.16;;;17.38;90.68
40872;BME280;26591;43.264;26.940;2023-05-29T00:18:12;98673.56;;;17.50;90.13
40872;BME280;26591;43.264;26.940;2023-05-29T00:20:38;98672.81;;;17.43;90.71
40872;BME280;26591;43.264;26.940;2023-05-29T00:23:03;98681.00;;;17.48;90.77
40872;BME280;26591;43.264;26.940;2023-05-29T00:25:31;98677.34;;;17.43;90.89
40872;BME280;26591;43.264;26.940;2023-05-29T00:27:57;98672.59;;;17.45;90.91
40872;BME280;26591;43.264;26.940;2023-05-29T00:30:22;98678.91;;;17.32;91.65
40872;BME280;26591;43.264;26.940;2023-05-29T00:32:50;98671.84;;;17.37;91.24
40872;BME280;26591;43.264;26.940;2023-05-29T00:35:17;98677.75;;;17.21;91.85
40872;BME280;26591;43.264;26.940;2023-05-29T00:37:43;98679.25;;;17.35;92.14
40872;BME280;26591;43.264;26.940;2023-05-29T00:40:10;98675.63;;;17.30;92.13
40872;BME280;26591;43.264;26.940;2023-05-29T00:42:36;98663.03;;;17.30;91.87
40872;BME280;26591;43.264;26.940;2023-05-29T00:45:02;98662.97;;;17.37;91.69
40872;BME280;26591;43.264;26.940;2023-05-29T00:47:28;98668.69;;;17.22;92.16
40872;BME280;26591;43.264;26.940;2023-05-29T00:49:56;98663.09;;;17.23;92.80
40872;BME280;26591;43.264;26.940;2023-05-29T00:52:23;98660.97;;;17.32;92.16
40872;BME280;26591;43.264;26.940;2023-05-29T00:54:50;98670.88;;;17.32;92.30
40872;BME280;26591;43.264;26.940;2023-05-29T00:57:16;98675.06;;;17.46;91.95
40872;BME280;26591;43.264;26.940;2023-05-29T00:59:44;98669.03;;;17.51;91.58
40872;BME280;26591;43.264;26.940;2023-05-29T01:02:11;98661.63;;;17.53;91.08
40872;BME280;26591;43.264;26.940;2023-05-29T01:04:38;98654.50;;;17.65;89.91
40872;BME280;26591;43.264;26.940;2023-05-29T01:07:03;98660.19;;;17.50;90.84
40872;BME280;26591;43.264;26.940;2023-05-29T01:09:30;98660.53;;;17.35;91.39
40872;BME280;26591;43.264;26.940;2023-05-29T01:17:04;98637.84;;;17.19;93.08
40872;BME280;26591;43.264;26.940;2023-05-29T01:22:47;98639.94;;;17.36;91.77
40872;BME280;26591;43.264;26.940;2023-05-29T01:25:32;98640.19;;;17.34;91.86
40872;BME280;26591;43.264;26.940;2023-05-29T01:28:11;98642.75;;;17.22;92.51
40872;BME280;26591;43.264;26.940;2023-05-29T01:30:38;98633.56;;;17.18;93.13
40872;BME280;26591;43.264;26.940;2023-05-29T01:33:05;98637.28;;;17.36;92.09
40872;BME280;26591;43.264;26.940;2023-05-29T01:35:53;98633.38;;;17.38;91.64
40872;BME280;26591;43.264;26.940;2023-05-29T01:38:18;98634.03;;;17.34;91.77
40872;BME280;26591;43.264;26.940;2023-05-29T01:40:44;98643.53;;;17.30;92.42
40872;BME280;26591;43.264;26.940;2023-05-29T01:43:10;98643.88;;;17.33;91.93
40872;BME280;26591;43.264;26.940;2023-05-29T01:45:36;98644.06;;;17.38;92.03
40872;BME280;26591;43.264;26.940;2023-05-29T01:48:02;98642.66;;;17.11;93.34
40872;BME280;26591;43.264;26.940;2023-05-29T01:50:43;98648.03;;;17.29;92.37
40872;BME280;26591;43.264;26.940;2023-05-29T01:53:09;98655.91;;;17.24;92.29
40872;BME280;26591;43.264;26.940;2023-05-29T01:55:35;98652.41;;;17.23;92.69
40872;BME280;26591;43.264;26.940;2023-05-29T01:58:01;98655.13;;;17.17;92.85
40872;BME280;26591;43.264;26.940;2023-05-29T02:00:27;98661.38;;;17.11;93.50
40872;BME280;26591;43.264;26.940;2023-05-29T02:02:53;98661.94;;;17.19;93.19
40872;BME280;26591;43.264;26.940;2023-05-29T02:05:18;98656.56;;;17.19;92.98
40872;BME280;26591;43.264;26.940;2023-05-29T02:07:44;98666.13;;;17.34;91.92
40872;BME280;26591;43.264;26.940;2023-05-29T02:10:10;98657.06;;;17.10;92.85
40872;BME280;26591;43.264;26.940;2023-05-29T02:12:35;98659.88;;;17.15;93.17
40872;BME280;26591;43.264;26.940;2023-05-29T02:15:03;98667.41;;;17.24;92.12
40872;BME280;26591;43.264;26.940;2023-05-29T02:17:29;98660.50;;;17.17;92.96
40872;BME280;26591;43.264;26.940;2023-05-29T02:19:56;98658.75;;;17.04;93.22
40872;BME280;26591;43.264;26.940;2023-05-29T02:22:21;98666.44;;;17.19;93.27
40872;BME280;26591;43.264;26.940;2023-05-29T02:24:47;98660.28;;;17.18;92.36
40872;BME280;26591;43.264;26.940;2023-05-29T02:27:12;98670.00;;;17.13;93.09
40872;BME280;26591;43.264;26.940;2023-05-29T02:29:38;98662.41;;;17.10;93.38
40872;BME280;26591;43.264;26.940;2023-05-29T02:32:04;98664.97;;;16.98;93.95
40872;BME280;26591;43.264;26.940;2023-05-29T02:34:30;98663.19;;;16.78;94.81
40872;BME280;26591;43.264;26.940;2023-05-29T02:36:55;98661.63;;;17.02;93.78
40872;BME280;26591;43.264;26.940;2023-05-29T02:39:21;98655.31;;;16.97;93.87
40872;BME280;26591;43.264;26.940;2023-05-29T02:41:47;98664.72;;;16.99;93.72
40872;BME280;26591;43.264;26.940;2023-05-29T02:44:12;98675.44;;;16.92;93.94
40872;BME280;26591;43.264;26.940;2023-05-29T02:46:38;98676.22;;;17.06;93.23
40872;BME280;26591;43.264;26.940;2023-05-29T02:49:04;98670.38;;;17.16;92.65
40872;BME280;26591;43.264;26.940;2023-05-29T02:51:30;98667.84;;;17.21;92.05
40872;BME280;26591;43.264;26.940;2023-05-29T02:53:58;98668.56;;;17.10;92.40
40872;BME280;26591;43.264;26.940;2023-05-29T02:56:23;98670.38;;;17.16;92.32
40872;BME280;26591;43.264;26.940;2023-05-29T02:58:52;98683.56;;;17.11;92.04
40872;BME280;26591;43.264;26.940;2023-05-29T03:01:17;98667.81;;;17.03;92.29
40872;BME280;26591;43.264;26.940;2023-05-29T03:03:43;98676.81;;;17.08;91.53
40872;BME280;26591;43.264;26.940;2023-05-29T03:06:09;98679.00;;;16.86;92.91
40872;BME280;26591;43.264;26.940;2023-05-29T03:08:35;98679.31;;;17.03;92.63
40872;BME280;26591;43.264;26.940;2023-05-29T03:11:07;98685.09;;;17.26;91.37
40872;BME280;26591;43.264;26.940;2023-05-29T03:13:32;98686.00;;;17.19;91.44
40872;BME280;26591;43.264;26.940;2023-05-29T03:15:59;98688.06;;;17.17;91.46
40872;BME280;26591;43.264;26.940;2023-05-29T03:18:25;98695.16;;;17.05;91.70
40872;BME280;26591;43.264;26.940;2023-05-29T03:20:50;98692.47;;;17.05;92.21
40872;BME280;26591;43.264;26.940;2023-05-29T03:23:16;98694.97;;;17.00;91.70
40872;BME280;26591;43.264;26.940;2023-05-29T03:25:41;98697.00;;;17.04;91.27
40872;BME280;26591;43.264;26.940;2023-05-29T03:28:07;98699.28;;;17.01;91.35
40872;BME280;26591;43.264;26.940;2023-05-29T03:30:33;98697.22;;;17.28;90.56
40872;BME280;26591;43.264;26.940;2023-05-29T03:32:59;98694.59;;;17.21;90.23
40872;BME280;26591;43.264;26.940;2023-05-29T03:35:29;98706.22;;;17.08;90.13
40872;BME280;26591;43.264;26.940;2023-05-29T03:37:54;98696.16;;;17.29;89.51
40872;BME280;26591;43.264;26.940;2023-05-29T03:40:22;98695.00;;;17.25;89.18
40872;BME280;26591;43.264;26.940;2023-05-29T03:42:48;98701.13;;;17.00;89.57
40872;BME280;26591;43.264;26.940;2023-05-29T03:45:15;98696.56;;;17.07;89.65
40872;BME280;26591;43.264;26.940;2023-05-29T03:47:41;98703.63;;;17.27;88.75
40872;BME280;26591;43.264;26.940;2023-05-29T03:50:07;98697.31;;;17.40;87.94
40872;BME280;26591;43.264;26.940;2023-05-29T03:52:36;98698.09;;;17.47;87.67
40872;BME280;26591;43.264;26.940;2023-05-29T03:55:02;98704.44;;;17.53;87.19
40872;BME280;26591;43.264;26.940;2023-05-29T03:57:28;98709.97;;;17.51;87.13
40872;BME280;26591;43.264;26.940;2023-05-29T03:59:53;98711.56;;;17.59;86.95
40872;BME280;26591;43.264;26.940;2023-05-29T04:02:19;98703.00;;;17.50;86.72
40872;BME280;26591;43.264;26.940;2023-05-29T04:04:45;98704.84;;;17.50;86.13
40872;BME280;26591;43.264;26.940;2023-05-29T04:07:10;98702.22;;;17.68;86.03
40872;BME280;26591;43.264;26.940;2023-05-29T04:09:36;98702.06;;;17.63;86.36
40872;BME280;26591;43.264;26.940;2023-05-29T04:12:03;98710.97;;;17.57;86.53
40872;BME280;26591;43.264;26.940;2023-05-29T04:14:31;98698.66;;;17.56;86.11
40872;BME280;26591;43.264;26.940;2023-05-29T04:16:56;98700.41;;;17.62;85.28
40872;BME280;26591;43.264;26.940;2023-05-29T04:19:22;98697.63;;;17.76;85.27
40872;BME280;26591;43.264;26.940;2023-05-29T04:21:47;98708.81;;;17.66;85.33
40872;BME280;26591;43.264;26.940;2023-05-29T04:24:16;98703.69;;;17.64;84.91
40872;BME280;26591;43.264;26.940;2023-05-29T04:26:41;98700.72;;;17.98;84.71
40872;BME280;26591;43.264;26.940;2023-05-29T04:29:08;98704.59;;;18.21;83.57
40872;BME280;26591;43.264;26.940;2023-05-29T04:31:34;98698.47;;;18.13;82.68
40872;BME280;26591;43.264;26.940;2023-05-29T04:34:02;98705.72;;;18.13;82.41
40872;BME280;26591;43.264;26.940;2023-05-29T04:36:30;98697.88;;;18.30;82.46
40872;BME280;26591;43.264;26.940;2023-05-29T04:38:58;98705.16;;;18.41;82.02
40872;BME280;26591;43.264;26.940;2023-05-29T04:41:24;98706.41;;;18.57;80.92
40872;BME280;26591;43.264;26.940;2023-05-29T04:43:57;98704.16;;;18.54;80.39
40872;BME280;26591;43.264;26.940;2023-05-29T04:46:24;98702.00;;;18.63;80.66
40872;BME280;26591;43.264;26.940;2023-05-29T04:48:52;98701.78;;;18.95;79.83
40872;BME280;26591;43.264;26.940;2023-05-29T04:51:21;98703.47;;;19.20;78.90
40872;BME280;26591;43.264;26.940;2023-05-29T04:53:48;98703.59;;;19.25;78.51
40872;BME280;26591;43.264;26.940;2023-05-29T04:56:14;98697.16;;;19.14;77.89
40872;BME280;26591;43.264;26.940;2023-05-29T04:58:41;98699.94;;;19.08;78.27
40872;BME280;26591;43.264;26.940;2023-05-29T05:01:07;98700.06;;;19.13;78.90
40872;BME280;26591;43.264;26.940;2023-05-29T05:03:35;98702.06;;;19.17;78.02
40872;BME280;26591;43.264;26.940;2023-05-29T05:06:01;98707.66;;;19.16;78.21
40872;BME280;26591;43.264;26.940;2023-05-29T05:08:33;98706.94;;;19.20;77.80
40872;BME280;26591;43.264;26.940;2023-05-29T05:11:00;98709.66;;;19.32;77.68
40872;BME280;26591;43.264;26.940;2023-05-29T05:13:26;98711.38;;;19.15;78.16
40872;BME280;26591;43.264;26.940;2023-05-29T05:15:52;98708.03;;;19.31;78.64
40872;BME280;26591;43.264;26.940;2023-05-29T05:18:18;98703.00;;;19.23;78.25
40872;BME280;26591;43.264;26.940;2023-05-29T05:20:44;98694.03;;;19.77;77.48
40872;BME280;26591;43.264;26.940;2023-05-29T05:23:10;98693.91;;;19.83;76.22
40872;BME280;26591;43.264;26.940;2023-05-29T05:25:36;98703.97;;;19.88;75.81
40872;BME280;26591;43.264;26.940;2023-05-29T05:28:04;98701.00;;;20.25;74.01
40872;BME280;26591;43.264;26.940;2023-05-29T05:30:31;98705.47;;;20.49;73.12
40872;BME280;26591;43.264;26.940;2023-05-29T05:32:57;98699.94;;;21.30;73.25
40872;BME280;26591;43.264;26.940;2023-05-29T05:35:23;98704.31;;;20.85;71.63
40872;BME280;26591;43.264;26.940;2023-05-29T05:37:49;98706.84;;;20.63;71.88
40872;BME280;26591;43.264;26.940;2023-05-29T05:40:14;98707.78;;;20.16;73.05
40872;BME280;26591;43.264;26.940;2023-05-29T05:42:40;98696.75;;;19.89;74.17
40872;BME280;26591;43.264;26.940;2023-05-29T05:45:06;98703.38;;;19.62;75.65
40872;BME280;26591;43.264;26.940;2023-05-29T05:47:32;98698.47;;;19.59;76.59
40872;BME280;26591;43.264;26.940;2023-05-29T05:49:58;98703.38;;;19.50;77.36
40872;BME280;26591;43.264;26.940;2023-05-29T05:52:24;98709.31;;;19.29;78.29
40872;BME280;26591;43.264;26.940;2023-05-29T05:54:51;98711.88;;;19.35;78.12
40872;BME280;26591;43.264;26.940;2023-05-29T05:57:16;98717.38;;;19.41;78.17
40872;BME280;26591;43.264;26.940;2023-05-29T05:59:42;98711.25;;;19.21;78.30
40872;BME280;26591;43.264;26.940;2023-05-29T06:02:08;98715.31;;;19.00;79.43
40872;BME280;26591;43.264;26.940;2023-05-29T06:04:33;98712.81;;;19.41;79.36
40872;BME280;26591;43.264;26.940;2023-05-29T06:06:59;98705.38;;;19.55;78.85
40872;BME280;26591;43.264;26.940;2023-05-29T06:09:25;98710.81;;;19.48;78.64
40872;BME280;26591;43.264;26.940;2023-05-29T06:11:51;98706.88;;;19.51;78.20
40872;BME280;26591;43.264;26.940;2023-05-29T06:14:17;98719.94;;;19.59;78.11
40872;BME280;26591;43.264;26.940;2023-05-29T06:16:43;98719.38;;;19.93;77.36
40872;BME280;26591;43.264;26.940;2023-05-29T06:19:08;98704.75;;;20.01;77.15
40872;BME280;26591;43.264;26.940;2023-05-29T06:21:34;98712.00;;;20.12;76.35
40872;BME280;26591;43.264;26.940;2023-05-29T06:24:00;98715.28;;;20.02;76.34
40872;BME280;26591;43.264;26.940;2023-05-29T06:26:25;98720.53;;;20.09;76.02
40872;BME280;26591;43.264;26.940;2023-05-29T06:28:52;98718.91;;;19.96;75.52
40872;BME280;26591;43.264;26.940;2023-05-29T06:31:18;98710.97;;;20.13;76.34
40872;BME280;26591;43.264;26.940;2023-05-29T06:33:44;98709.06;;;20.13;75.58
40872;BME280;26591;43.264;26.940;2023-05-29T06:36:09;98714.09;;;20.22;74.93
40872;BME280;26591;43.264;26.940;2023-05-29T06:38:36;98718.88;;;20.20;75.37
40872;BME280;26591;43.264;26.940;2023-05-29T06:41:01;98727.34;;;19.88;76.21
40872;BME280;26591;43.264;26.940;2023-05-29T06:43:28;98737.91;;;19.71;76.58
40872;BME280;26591;43.264;26.940;2023-05-29T06:45:53;98730.94;;;19.93;77.24
40872;BME280;26591;43.264;26.940;2023-05-29T06:48:19;98726.22;;;20.24;76.13
40872;BME280;26591;43.264;26.940;2023-05-29T06:50:45;98732.84;;;20.46;75.88
40872;BME280;26591;43.264;26.940;2023-05-29T06:53:10;98729.88;;;20.06;75.99
40872;BME280;26591;43.264;26.940;2023-05-29T06:55:37;98720.78;;;19.95;76.41
40872;BME280;26591;43.264;26.940;2023-05-29T06:58:03;98712.34;;;20.56;75.47
40872;BME280;26591;43.264;26.940;2023-05-29T07:00:28;98729.13;;;20.76;74.71
40872;BME280;26591;43.264;26.940;2023-05-29T07:02:54;98737.31;;;20.69;74.02
40872;BME280;26591;43.264;26.940;2023-05-29T07:05:20;98733.06;;;20.44;74.85
40872;BME280;26591;43.264;26.940;2023-05-29T07:07:45;98738.41;;;20.56;74.71
40872;BME280;26591;43.264;26.940;2023-05-29T07:10:11;98740.88;;;20.57;75.05
40872;BME280;26591;43.264;26.940;2023-05-29T07:12:36;98748.13;;;20.45;74.58
40872;BME280;26591;43.264;26.940;2023-05-29T07:15:02;98745.13;;;20.70;74.35
40872;BME280;26591;43.264;26.940;2023-05-29T07:17:27;98739.25;;;20.85;74.40
40872;BME280;26591;43.264;26.940;2023-05-29T07:19:53;98745.34;;;20.81;73.57
40872;BME280;26591;43.264;26.940;2023-05-29T07:22:19;98747.66;;;20.89;73.46
40872;BME280;26591;43.264;26.940;2023-05-29T07:24:47;98743.09;;;20.89;73.39
40872;BME280;26591;43.264;26.940;2023-05-29T07:27:13;98744.94;;;21.01;72.56
40872;BME280;26591;43.264;26.940;2023-05-29T07:29:38;98745.56;;;20.50;73.98
40872;BME280;26591;43.264;26.940;2023-05-29T07:32:04;98754.72;;;20.25;74.55
40872;BME280;26591;43.264;26.940;2023-05-29T07:34:29;98758.72;;;20.11;74.86
40872;BME280;26591;43.264;26.940;2023-05-29T07:36:57;98759.97;;;19.85;76.37
40872;BME280;26591;43.264;26.940;2023-05-29T07:39:23;98760.44;;;19.81;76.90
40872;BME280;26591;43.264;26.940;2023-05-29T07:41:49;98761.81;;;19.48;78.15
40872;BME280;26591;43.264;26.940;2023-05-29T07:44:15;98757.88;;;19.51;78.39
40872;BME280;26591;43.264;26.940;2023-05-29T07:46:40;98761.81;;;19.36;78.77
40872;BME280;26591;43.264;26.940;2023-05-29T07:49:06;98770.81;;;19.12;80.23
40872;BME280;26591;43.264;26.940;2023-05-29T07:51:31;98769.69;;;19.19;80.32
40872;BME280;26591;43.264;26.940;2023-05-29T07:53:57;98768.84;;;19.07;80.95
40872;BME280;26591;43.264;26.940;2023-05-29T07:56:23;98764.28;;;19.50;79.94
40872;BME280;26591;43.264;26.940;2023-05-29T07:58:48;98764.78;;;19.82;78.81
40872;BME280;26591;43.264;26.940;2023-05-29T08:01:14;98764.94;;;19.88;78.41
40872;BME280;26591;43.264;26.940;2023-05-29T08:03:42;98771.22;;;20.05;77.79
40872;BME280;26591;43.264;26.940;2023-05-29T08:06:08;98780.47;;;19.97;78.27
40872;BME280;26591;43.264;26.940;2023-05-29T08:08:34;98781.34;;;19.79;78.52
40872;BME280;26591;43.264;26.940;2023-05-29T08:10:59;98778.09;;;19.89;78.77
40872;BME280;26591;43.264;26.940;2023-05-29T08:13:25;98793.94;;;19.67;78.80
40872;BME280;26591;43.264;26.940;2023-05-29T08:16:07;98790.94;;;19.87;78.52
40872;BME280;26591;43.264;26.940;2023-05-29T08:18:48;98790.56;;;19.72;78.88
40872;BME280;26591;43.264;26.940;2023-05-29T08:21:13;98789.91;;;19.34;80.23
40872;BME280;26591;43.264;26.940;2023-05-29T08:23:40;98791.13;;;19.50;80.46
40872;BME280;26591;43.264;26.940;2023-05-29T08:26:05;98789.34;;;19.32;81.38
40872;BME280;26591;43.264;26.940;2023-05-29T08:28:31;98783.53;;;19.47;80.64
40872;BME280;26591;43.264;26.940;2023-05-29T08:30:57;98791.25;;;19.55;80.62
40872;BME280;26591;43.264;26.940;2023-05-29T08:33:22;98785.75;;;19.50;80.98
40872;BME280;26591;43.264;26.940;2023-05-29T08:35:48;98789.28;;;19.62;80.74
40872;BME280;26591;43.264;26.940;2023-05-29T08:38:13;98796.66;;;19.79;79.70
40872;BME280;26591;43.264;26.940;2023-05-29T08:40:39;98786.84;;;19.61;80.44
40872;BME280;26591;43.264;26.940;2023-05-29T08:43:43;98796.50;;;19.74;80.23
40872;BME280;26591;43.264;26.940;2023-05-29T08:46:10;98791.38;;;19.60;80.79
40872;BME280;26591;43.264;26.940;2023-05-29T08:48:39;98806.56;;;19.66;81.52
40872;BME280;26591;43.264;26.940;2023-05-29T08:51:07;98794.59;;;19.39;82.83
40872;BME280;26591;43.264;26.940;2023-05-29T08:53:34;98800.06;;;19.01;85.38
40872;BME280;26591;43.264;26.940;2023-05-29T08:56:01;98805.06;;;18.79;86.94
40872;BME280;26591;43.264;26.940;2023-05-29T08:58:27;98809.56;;;18.67;87.69
40872;BME280;26591;43.264;26.940;2023-05-29T09:00:53;98822.88;;;18.55;88.89
40872;BME280;26591;43.264;26.940;2023-05-29T09:03:20;98827.22;;;18.37;89.72
40872;BME280;26591;43.264;26.940;2023-05-29T09:05:48;98823.09;;;18.35;90.73
40872;BME280;26591;43.264;26.940;2023-05-29T09:08:14;98831.72;;;18.37;90.65
40872;BME280;26591;43.264;26.940;2023-05-29T09:10:41;98822.94;;;18.48;89.76
40872;BME280;26591;43.264;26.940;2023-05-29T09:13:08;98815.72;;;18.30;89.78
40872;BME280;26591;43.264;26.940;2023-05-29T09:15:35;98806.50;;;18.44;89.17
40872;BME280;26591;43.264;26.940;2023-05-29T09:18:01;98808.00;;;18.59;88.62
40872;BME280;26591;43.264;26.940;2023-05-29T09:20:26;98804.84;;;18.25;90.31
40872;BME280;26591;43.264;26.940;2023-05-29T09:25:28;98798.47;;;18.63;89.85
40872;BME280;26591;43.264;26.940;2023-05-29T09:28:02;98793.38;;;18.73;88.61
40872;BME280;26591;43.264;26.940;2023-05-29T09:30:38;98784.63;;;18.48;87.69
40872;BME280;26591;43.264;26.940;2023-05-29T09:33:19;98774.03;;;18.71;86.30
40872;BME280;26591;43.264;26.940;2023-05-29T09:35:47;98775.69;;;18.54;86.53
40872;BME280;26591;43.264;26.940;2023-05-29T09:38:14;98773.41;;;18.57;86.77
40872;BME280;26591;43.264;26.940;2023-05-29T09:40:41;98765.88;;;18.66;86.35
40872;BME280;26591;43.264;26.940;2023-05-29T09:43:16;98768.97;;;18.82;86.63
40872;BME280;26591;43.264;26.940;2023-05-29T09:45:44;98764.03;;;18.97;85.68
40872;BME280;26591;43.264;26.940;2023-05-29T09:48:17;98761.91;;;18.69;85.98
40872;BME280;26591;43.264;26.940;2023-05-29T09:50:44;98766.28;;;18.82;85.77
40872;BME280;26591;43.264;26.940;2023-05-29T09:53:31;98763.97;;;18.85;85.95
40872;BME280;26591;43.264;26.940;2023-05-29T09:55:56;98761.63;;;18.89;86.18
40872;BME280;26591;43.264;26.940;2023-05-29T09:58:24;98763.22;;;18.78;86.31
40872;BME280;26591;43.264;26.940;2023-05-29T10:00:51;98775.66;;;17.98;84.72
40872;BME280;26591;43.264;26.940;2023-05-29T10:03:17;98778.06;;;17.81;85.67
40872;BME280;26591;43.264;26.940;2023-05-29T10:05:47;98784.41;;;18.12;85.81
40872;BME280;26591;43.264;26.940;2023-05-29T10:08:15;98788.38;;;18.03;86.46
40872;BME280;26591;43.264;26.940;2023-05-29T10:10:54;98794.75;;;17.83;86.63
40872;BME280;26591;43.264;26.940;2023-05-29T10:13:22;98793.84;;;17.89;86.51
40872;BME280;26591;43.264;26.940;2023-05-29T10:15:51;98792.81;;;18.15;86.43
40872;BME280;26591;43.264;26.940;2023-05-29T10:20:56;98786.19;;;18.18;86.99
40872;BME280;26591;43.264;26.940;2023-05-29T10:23:25;98782.75;;;18.11;87.78
40872;BME280;26591;43.264;26.940;2023-05-29T10:25:53;98781.03;;;17.98;87.89
40872;BME280;26591;43.264;26.940;2023-05-29T10:28:22;98780.09;;;18.11;88.09
40872;BME280;26591;43.264;26.940;2023-05-29T10:31:08;98783.50;;;17.99;88.83
40872;BME280;26591;43.264;26.940;2023-05-29T10:36:16;98783.97;;;18.15;89.27
40872;BME280;26591;43.264;26.940;2023-05-29T10:38:46;98782.19;;;18.27;89.40
40872;BME280;26591;43.264;26.940;2023-05-29T10:43:53;98783.28;;;18.20;90.08
40872;BME280;26591;43.264;26.940;2023-05-29T10:46:19;98784.53;;;18.17;90.41
40872;BME280;26591;43.264;26.940;2023-05-29T10:48:44;98781.88;;;18.36;89.62
40872;BME280;26591;43.264;26.940;2023-05-29T10:51:24;98776.00;;;18.45;89.63
40872;BME280;26591;43.264;26.940;2023-05-29T10:53:51;98773.25;;;18.52;89.55
40872;BME280;26591;43.264;26.940;2023-05-29T10:56:21;98767.78;;;18.59;89.46
40872;BME280;26591;43.264;26.940;2023-05-29T10:58:55;98765.13;;;18.40;90.12
40872;BME280;26591;43.264;26.940;2023-05-29T11:01:23;98770.03;;;18.43;90.29
40872;BME280;26591;43.264;26.940;2023-05-29T11:04:25;98756.47;;;18.57;90.52
40872;BME280;26591;43.264;26.940;2023-05-29T11:06:41;98751.22;;;18.50;90.48
40872;BME280;26591;43.264;26.940;2023-05-29T11:09:29;98752.94;;;18.75;90.23
40872;BME280;26591;43.264;26.940;2023-05-29T11:12:23;98751.34;;;18.74;90.09
40872;BME280;26591;43.264;26.940;2023-05-29T11:15:04;98750.13;;;18.88;90.12
40872;BME280;26591;43.264;26.940;2023-05-29T11:17:32;98749.91;;;18.71;90.31
40872;BME280;26591;43.264;26.940;2023-05-29T11:20:02;98755.00;;;18.91;90.22
40872;BME280;26591;43.264;26.940;2023-05-29T11:25:14;98749.88;;;19.20;89.52
40872;BME280;26591;43.264;26.940;2023-05-29T11:28:11;98746.13;;;19.21;89.22
40872;BME280;26591;43.264;26.940;2023-05-29T11:30:46;98755.47;;;19.19;88.53
40872;BME280;26591;43.264;26.940;2023-05-29T11:33:23;98748.63;;;19.47;88.46
40872;BME280;26591;43.264;26.940;2023-05-29T11:35:56;98745.34;;;19.21;88.70
40872;BME280;26591;43.264;26.940;2023-05-29T11:38:23;98751.56;;;19.57;87.57
40872;BME280;26591;43.264;26.940;2023-05-29T11:40:49;98746.81;;;19.83;87.29
40872;BME280;26591;43.264;26.940;2023-05-29T11:43:15;98748.06;;;19.80;87.23
40872;BME280;26591;43.264;26.940;2023-05-29T11:45:40;98747.50;;;19.66;86.44
40872;BME280;26591;43.264;26.940;2023-05-29T11:48:06;98751.22;;;19.54;86.76
40872;BME280;26591;43.264;26.940;2023-05-29T11:50:32;98761.97;;;19.65;86.22
40872;BME280;26591;43.264;26.940;2023-05-29T11:52:59;98756.38;;;19.79;86.36
40872;BME280;26591;43.264;26.940;2023-05-29T11:55:26;98752.56;;;19.87;86.15
40872;BME280;26591;43.264;26.940;2023-05-29T11:58:00;98756.88;;;19.88;85.64
40872;BME280;26591;43.264;26.940;2023-05-29T12:00:28;98744.13;;;19.83;85.23
40872;BME280;26591;43.264;26.940;2023-05-29T12:02:57;98746.78;;;19.71;85.75
40872;BME280;26591;43.264;26.940;2023-05-29T12:05:23;98752.81;;;19.43;85.68
40872;BME280;26591;43.264;26.940;2023-05-29T12:07:52;98747.19;;;19.20;85.01
40872;BME280;26591;43.264;26.940;2023-05-29T12:10:19;98741.41;;;19.35;84.44
40872;BME280;26591;43.264;26.940;2023-05-29T12:12:55;98740.22;;;19.31;84.78
40872;BME280;26591;43.264;26.940;2023-05-29T12:15:21;98730.81;;;19.41;85.14
40872;BME280;26591;43.264;26.940;2023-05-29T12:17:49;98724.13;;;19.31;83.59
40872;BME280;26591;43.264;26.940;2023-05-29T12:20:15;98726.00;;;19.31;83.24
40872;BME280;26591;43.264;26.940;2023-05-29T12:22:43;98725.03;;;19.13;84.47
40872;BME280;26591;43.264;26.940;2023-05-29T12:25:13;98717.56;;;19.15;84.28
40872;BME280;26591;43.264;26.940;2023-05-29T12:27:44;98723.53;;;19.17;84.97
40872;BME280;26591;43.264;26.940;2023-05-29T12:30:20;98728.00;;;19.47;84.73
40872;BME280;26591;43.264;26.940;2023-05-29T12:32:47;98731.56;;;19.29;84.74
40872;BME280;26591;43.264;26.940;2023-05-29T12:35:17;98741.16;;;19.37;84.73
40872;BME280;26591;43.264;26.940;2023-05-29T12:37:53;98741.31;;;19.54;84.40
40872;BME280;26591;43.264;26.940;2023-05-29T12:40:23;98743.88;;;19.61;84.60
40872;BME280;26591;43.264;26.940;2023-05-29T12:42:58;98738.47;;;19.37;85.11
40872;BME280;26591;43.264;26.940;2023-05-29T12:45:26;98736.75;;;19.66;85.31
40872;BME280;26591;43.264;26.940;2023-05-29T12:47:56;98738.25;;;19.50;84.50
40872;BME280;26591;43.264;26.940;2023-05-29T12:50:26;98734.19;;;19.60;84.25
40872;BME280;26591;43.264;26.940;2023-05-29T12:52:56;98727.28;;;19.40;84.97
40872;BME280;26591;43.264;26.940;2023-05-29T12:55:22;98727.41;;;19.57;84.87
40872;BME280;26591;43.264;26.940;2023-05-29T12:57:47;98727.34;;;19.88;84.14
40872;BME280;26591;43.264;26.940;2023-05-29T13:00:13;98721.72;;;19.77;84.79
40872;BME280;26591;43.264;26.940;2023-05-29T13:02:48;98713.28;;;20.09;84.25
40872;BME280;26591;43.264;26.940;2023-05-29T13:05:15;98718.06;;;20.19;83.59
40872;BME280;26591;43.264;26.940;2023-05-29T13:07:42;98713.06;;;19.99;83.88
40872;BME280;26591;43.264;26.940;2023-05-29T13:10:08;98724.25;;;20.20;83.58
40872;BME280;26591;43.264;26.940;2023-05-29T13:12:34;98723.56;;;20.12;83.76
40872;BME280;26591;43.264;26.940;2023-05-29T13:15:00;98718.63;;;20.21;83.76